Time;durP1;ratioP1;P1;durP2;ratioP2;P2;SDS_P1;SDS_P2;PMS_P1;PMS_P2;Temp;Humidity;BMP_temperature;BMP_pressure;BME280_temperature;BME280_humidity;BME280_pressure;Samples;Min_cycle;Max_cycle;Signal;HPM_P1;HPM_P2
2024/01/22 00:00:08;;;;;;;;;;;2.00;99.90;;;;;;5052524;28;20757;-65
2024/01/22 00:02:38;;;;;;;;;;;2.00;99.90;;;;;;5059519;28;20348;-65
2024/01/22 00:05:05;;;;;;;;;;;2.00;99.90;;;;;;5052186;28;19928;-67
2024/01/22 00:07:32;;;;;;;;;;;2.00;99.90;;;;;;5053807;28;20441;-60
2024/01/22 00:09:59;;;;;;;;;;;2.00;99.90;;;;;;5055951;28;19959;-64
2024/01/22 00:12:25;;;;;;;;;;;2.00;99.90;;;;;;5056459;28;19939;-72
2024/01/22 00:14:52;;;;;;;;;;;2.00;99.90;;;;;;5052183;28;19937;-71
2024/01/22 00:17:19;;;;;;;;;;;2.00;99.90;;;;;;5053463;28;19936;-63
2024/01/22 00:19:46;;;;;;;;;;;2.00;99.90;;;;;;5054405;28;20019;-67
2024/01/22 00:22:13;;;;;;;;;;;2.00;99.90;;;;;;5055857;28;20620;-61
2024/01/22 00:24:40;;;;;;;;;;;2.00;99.90;;;;;;5060177;28;19929;-62
2024/01/22 00:27:07;;;;;;;;;;;2.00;99.90;;;;;;5054800;28;20019;-63
2024/01/22 00:29:34;;;;;;;;;;;2.10;99.90;;;;;;5052034;28;19924;-63
2024/01/22 00:32:01;;;;;;;;;;;2.10;99.90;;;;;;5055575;28;20651;-65
2024/01/22 00:34:27;;;;;;;;;;;2.10;99.90;;;;;;5055692;28;20391;-60
2024/01/22 00:36:54;;;;;;;;;;;2.10;99.90;;;;;;5051429;28;20612;-66
2024/01/22 00:39:21;;;;;;;;;;;2.10;99.90;;;;;;5053295;28;19928;-67
2024/01/22 00:41:48;;;;;;;;;;;2.10;99.90;;;;;;5050664;28;19933;-63
2024/01/22 00:44:15;;;;;;;;;;;2.10;99.90;;;;;;5049538;28;19928;-66
2024/01/22 00:46:42;;;;;;;;;;;2.10;99.90;;;;;;5059807;28;20500;-65
2024/01/22 00:49:08;;;;;;;;;;;2.10;99.90;;;;;;5058957;28;20422;-62
2024/01/22 00:51:36;;;;;;;;;;;2.20;99.90;;;;;;5050535;28;19931;-61
2024/01/22 00:54:03;;;;;;;;;;;2.20;99.90;;;;;;5054104;28;20409;-63
2024/01/22 00:56:30;;;;;;;;;;;2.20;99.90;;;;;;5055558;28;19956;-64
2024/01/22 00:58:57;;;;;;;;;;;2.20;99.90;;;;;;5053328;28;19929;-64
2024/01/22 01:01:24;;;;;;;;;;;2.20;99.90;;;;;;5051154;28;20016;-63
2024/01/22 01:03:51;;;;;;;;;;;2.20;99.90;;;;;;5050766;28;19925;-67
2024/01/22 01:06:18;;;;;;;;;;;2.20;99.90;;;;;;5051678;28;20390;-66
2024/01/22 01:08:44;;;;;;;;;;;2.20;99.90;;;;;;5047944;28;19928;-69
2024/01/22 01:11:12;;;;;;;;;;;2.20;99.90;;;;;;5054798;28;20028;-63
2024/01/22 01:13:38;;;;;;;;;;;2.30;99.90;;;;;;5056892;28;19975;-63
2024/01/22 01:16:05;;;;;;;;;;;2.30;99.90;;;;;;5054306;28;19924;-66
2024/01/22 01:18:32;;;;;;;;;;;2.30;99.90;;;;;;5055421;28;20279;-63
2024/01/22 01:20:59;;;;;;;;;;;2.30;99.90;;;;;;5054045;28;19968;-63
2024/01/22 01:23:26;;;;;;;;;;;2.30;99.90;;;;;;5054775;28;20451;-66
2024/01/22 01:25:53;;;;;;;;;;;2.30;99.90;;;;;;5049802;28;19929;-66
2024/01/22 01:28:20;;;;;;;;;;;2.30;99.90;;;;;;5050870;28;20378;-69
2024/01/22 01:30:47;;;;;;;;;;;2.30;99.90;;;;;;5046842;28;20559;-67
2024/01/22 01:33:13;;;;;;;;;;;2.30;99.90;;;;;;5052224;28;19924;-60
2024/01/22 01:35:43;;;;;;;;;;;2.30;99.90;;;;;;5057782;28;19929;-64
2024/01/22 01:38:10;;;;;;;;;;;2.30;99.90;;;;;;5055712;28;19956;-60
2024/01/22 01:40:41;;;;;;;;;;;2.30;99.90;;;;;;5052985;28;20650;-63
2024/01/22 01:43:08;;;;;;;;;;;2.30;99.90;;;;;;5053704;28;20560;-61
2024/01/22 01:45:35;;;;;;;;;;;2.30;99.90;;;;;;5054992;28;19933;-65
2024/01/22 01:48:02;;;;;;;;;;;2.30;99.90;;;;;;5053037;28;20394;-69
2024/01/22 01:50:29;;;;;;;;;;;2.30;99.90;;;;;;5050702;28;19935;-64
2024/01/22 01:52:56;;;;;;;;;;;2.30;99.90;;;;;;5053515;28;20031;-67
2024/01/22 01:55:23;;;;;;;;;;;2.30;99.90;;;;;;5051540;28;19972;-66
2024/01/22 01:57:50;;;;;;;;;;;2.30;99.90;;;;;;5054509;28;19939;-64
2024/01/22 02:00:26;;;;;;;;;;;2.30;99.90;;;;;;5047031;28;20023;-64
2024/01/22 02:02:53;;;;;;;;;;;2.30;99.90;;;;;;5052998;28;19987;-71
2024/01/22 02:05:20;;;;;;;;;;;2.30;99.90;;;;;;5055115;28;19928;-65
2024/01/22 02:07:47;;;;;;;;;;;2.30;99.90;;;;;;5055126;28;20492;-61
2024/01/22 02:10:14;;;;;;;;;;;2.30;99.90;;;;;;5051436;28;19929;-64
2024/01/22 02:12:41;;;;;;;;;;;2.30;99.90;;;;;;5053682;28;19928;-65
2024/01/22 02:15:08;;;;;;;;;;;2.30;99.90;;;;;;5052178;28;19974;-60
2024/01/22 02:17:35;;;;;;;;;;;2.30;99.90;;;;;;5052176;28;19987;-67
2024/01/22 02:20:03;;;;;;;;;;;2.30;99.90;;;;;;5052406;28;20591;-64
2024/01/22 02:22:29;;;;;;;;;;;2.30;99.90;;;;;;5051112;28;19998;-60
2024/01/22 02:24:56;;;;;;;;;;;2.30;99.90;;;;;;5054668;28;19978;-71
2024/01/22 02:27:23;;;;;;;;;;;2.30;99.90;;;;;;5051910;28;20011;-65
2024/01/22 02:29:50;;;;;;;;;;;2.30;99.90;;;;;;5052620;28;19924;-67
2024/01/22 02:32:17;;;;;;;;;;;2.30;99.90;;;;;;5054635;28;19933;-64
2024/01/22 02:34:44;;;;;;;;;;;2.30;99.90;;;;;;5047370;28;19931;-65
2024/01/22 02:37:11;;;;;;;;;;;2.30;99.90;;;;;;5049872;28;19924;-69
2024/01/22 02:39:38;;;;;;;;;;;2.30;99.90;;;;;;5045866;28;19975;-70
2024/01/22 02:42:05;;;;;;;;;;;2.30;99.90;;;;;;5039922;28;19937;-65
2024/01/22 02:44:34;;;;;;;;;;;2.30;99.90;;;;;;5048207;28;19925;-66
2024/01/22 02:47:02;;;;;;;;;;;2.40;99.90;;;;;;5050956;28;19924;-66
2024/01/22 02:49:28;;;;;;;;;;;2.40;99.90;;;;;;5049928;28;19946;-61
2024/01/22 02:51:56;;;;;;;;;;;2.30;99.90;;;;;;5049023;28;19938;-66
2024/01/22 02:54:22;;;;;;;;;;;2.30;99.90;;;;;;5049436;28;19975;-69
2024/01/22 02:56:49;;;;;;;;;;;2.30;99.90;;;;;;5049836;28;19951;-66
2024/01/22 02:59:17;;;;;;;;;;;2.30;99.90;;;;;;5052586;28;19928;-63
2024/01/22 03:01:44;;;;;;;;;;;2.30;99.90;;;;;;5048164;28;19950;-71
2024/01/22 03:04:11;;;;;;;;;;;2.30;99.90;;;;;;5047987;28;19925;-64
2024/01/22 03:06:38;;;;;;;;;;;2.30;99.90;;;;;;5045910;28;20379;-64
2024/01/22 03:09:05;;;;;;;;;;;2.30;99.90;;;;;;5054766;28;19978;-70
2024/01/22 03:11:32;;;;;;;;;;;2.30;99.90;;;;;;5050500;28;19960;-66
2024/01/22 03:13:59;;;;;;;;;;;2.30;99.90;;;;;;5054441;28;19925;-67
2024/01/22 03:16:26;;;;;;;;;;;2.30;99.90;;;;;;5053885;28;19971;-70
2024/01/22 03:18:53;;;;;;;;;;;2.30;99.90;;;;;;5052876;28;19936;-68
2024/01/22 03:21:20;;;;;;;;;;;2.30;99.90;;;;;;5045340;28;20283;-64
2024/01/22 03:23:47;;;;;;;;;;;2.30;99.90;;;;;;5048345;28;20039;-67
2024/01/22 03:26:23;;;;;;;;;;;2.30;99.90;;;;;;5044329;28;19964;-64
2024/01/22 03:28:50;;;;;;;;;;;2.30;99.90;;;;;;5049646;28;19929;-66
2024/01/22 03:31:20;;;;;;;;;;;2.30;99.90;;;;;;5050012;28;19929;-61
2024/01/22 03:33:47;;;;;;;;;;;2.30;99.90;;;;;;5050987;28;19932;-61
2024/01/22 03:36:14;;;;;;;;;;;2.30;99.90;;;;;;5057158;28;19929;-63
2024/01/22 03:38:41;;;;;;;;;;;2.30;99.90;;;;;;5052985;28;20015;-65
2024/01/22 03:41:07;;;;;;;;;;;2.30;99.90;;;;;;5054063;28;19932;-63
2024/01/22 03:43:34;;;;;;;;;;;2.30;99.90;;;;;;5053044;28;19925;-67
2024/01/22 03:46:01;;;;;;;;;;;2.40;99.90;;;;;;5049383;28;19959;-76
2024/01/22 03:48:28;;;;;;;;;;;2.30;99.90;;;;;;5050056;28;19933;-60
2024/01/22 03:50:55;;;;;;;;;;;2.30;99.90;;;;;;5047541;28;19948;-64
2024/01/22 03:53:22;;;;;;;;;;;2.30;99.90;;;;;;5046613;28;19932;-69
2024/01/22 03:55:49;;;;;;;;;;;2.30;99.90;;;;;;5051858;28;20549;-62
2024/01/22 03:58:16;;;;;;;;;;;2.30;99.90;;;;;;5051196;28;20382;-61
2024/01/22 04:00:42;;;;;;;;;;;2.30;99.90;;;;;;5047868;28;20016;-73
2024/01/22 04:03:10;;;;;;;;;;;2.30;99.90;;;;;;5037500;28;19933;-63
2024/01/22 04:05:37;;;;;;;;;;;2.30;99.90;;;;;;5042218;28;19979;-64
2024/01/22 04:08:06;;;;;;;;;;;2.20;99.90;;;;;;5035353;28;20283;-66
2024/01/22 04:10:32;;;;;;;;;;;2.20;99.90;;;;;;5038998;28;19975;-63
2024/01/22 04:12:59;;;;;;;;;;;2.20;99.90;;;;;;5037138;28;19929;-64
2024/01/22 04:15:28;;;;;;;;;;;2.20;99.90;;;;;;5039844;28;19961;-61
2024/01/22 04:17:55;;;;;;;;;;;2.20;99.90;;;;;;5038315;28;20029;-69
2024/01/22 04:20:22;;;;;;;;;;;2.20;99.90;;;;;;5036218;28;20027;-62
2024/01/22 04:22:50;;;;;;;;;;;2.20;99.90;;;;;;5038357;28;19929;-64
2024/01/22 04:25:17;;;;;;;;;;;2.20;99.90;;;;;;5038852;28;19929;-62
2024/01/22 04:27:44;;;;;;;;;;;2.20;99.90;;;;;;5040961;28;19979;-64
2024/01/22 04:30:12;;;;;;;;;;;2.20;99.90;;;;;;5039079;28;20591;-60
2024/01/22 04:32:39;;;;;;;;;;;2.20;99.90;;;;;;5041120;28;20412;-63
2024/01/22 04:35:07;;;;;;;;;;;2.20;99.90;;;;;;5047039;28;19925;-61
2024/01/22 04:37:34;;;;;;;;;;;2.20;99.90;;;;;;5041004;28;19929;-64
2024/01/22 04:40:08;;;;;;;;;;;2.20;99.90;;;;;;5046227;28;19934;-61
2024/01/22 04:42:34;;;;;;;;;;;2.20;99.90;;;;;;5045810;28;19932;-64
2024/01/22 04:45:02;;;;;;;;;;;2.20;99.90;;;;;;5042096;28;19925;-61
2024/01/22 04:47:28;;;;;;;;;;;2.20;99.90;;;;;;5046356;28;19964;-62
2024/01/22 04:49:55;;;;;;;;;;;2.20;99.90;;;;;;5035137;28;19940;-64
2024/01/22 04:52:22;;;;;;;;;;;2.10;99.90;;;;;;5041003;28;19929;-64
2024/01/22 04:54:49;;;;;;;;;;;2.10;99.90;;;;;;5042414;28;19955;-65
2024/01/22 04:57:15;;;;;;;;;;;2.10;99.90;;;;;;5036313;28;20403;-68
2024/01/22 04:59:42;;;;;;;;;;;2.10;99.90;;;;;;5042394;28;20035;-64
2024/01/22 05:02:09;;;;;;;;;;;2.10;99.90;;;;;;5038222;28;19925;-65
2024/01/22 05:04:36;;;;;;;;;;;2.10;99.90;;;;;;5039742;28;19994;-63
2024/01/22 05:07:03;;;;;;;;;;;2.10;99.90;;;;;;5033898;28;19939;-69
2024/01/22 05:09:29;;;;;;;;;;;2.10;99.90;;;;;;5032521;28;19976;-63
2024/01/22 05:11:56;;;;;;;;;;;2.10;99.90;;;;;;5033087;28;19983;-63
2024/01/22 05:14:26;;;;;;;;;;;2.10;99.90;;;;;;5029363;28;20015;-61
2024/01/22 05:16:53;;;;;;;;;;;2.10;99.90;;;;;;5038157;28;20036;-70
2024/01/22 05:19:19;;;;;;;;;;;2.10;99.90;;;;;;5039735;28;20327;-62
2024/01/22 05:21:46;;;;;;;;;;;2.10;99.90;;;;;;5039129;28;19925;-63
2024/01/22 05:24:13;;;;;;;;;;;2.10;99.90;;;;;;5040258;28;19929;-66
2024/01/22 05:26:40;;;;;;;;;;;2.20;99.90;;;;;;5040165;28;20555;-64
2024/01/22 05:29:07;;;;;;;;;;;2.10;99.90;;;;;;5033771;28;19929;-64
2024/01/22 05:31:34;;;;;;;;;;;2.20;99.90;;;;;;5038330;28;19925;-67
2024/01/22 05:34:01;;;;;;;;;;;2.10;99.90;;;;;;5034406;28;20398;-61
2024/01/22 05:36:28;;;;;;;;;;;2.10;99.90;;;;;;5039793;28;19929;-61
2024/01/22 05:38:55;;;;;;;;;;;2.10;99.90;;;;;;5038670;28;19928;-68
2024/01/22 05:41:21;;;;;;;;;;;2.10;99.90;;;;;;5040433;28;19932;-62
2024/01/22 05:43:48;;;;;;;;;;;2.10;99.90;;;;;;5037296;28;19936;-62
2024/01/22 05:46:15;;;;;;;;;;;2.10;99.90;;;;;;5044728;28;19928;-64
2024/01/22 05:48:42;;;;;;;;;;;2.10;99.90;;;;;;5045995;28;19933;-62
2024/01/22 05:51:09;;;;;;;;;;;2.10;99.90;;;;;;5037640;28;20019;-61
2024/01/22 05:53:37;;;;;;;;;;;2.10;99.90;;;;;;5042529;28;19929;-65
2024/01/22 05:56:04;;;;;;;;;;;2.10;99.90;;;;;;5035801;28;20002;-61
2024/01/22 05:58:31;;;;;;;;;;;2.10;99.90;;;;;;5041200;28;19925;-69
2024/01/22 06:00:58;;;;;;;;;;;2.20;99.90;;;;;;5045516;28;19932;-61
2024/01/22 06:03:25;;;;;;;;;;;2.10;99.90;;;;;;5052014;28;19935;-62
2024/01/22 06:05:52;;;;;;;;;;;2.10;99.90;;;;;;5053749;28;19924;-65
2024/01/22 06:08:19;;;;;;;;;;;2.20;99.90;;;;;;5051775;28;19938;-64
2024/01/22 06:10:46;;;;;;;;;;;2.10;99.90;;;;;;5051291;28;19924;-65
2024/01/22 06:13:13;;;;;;;;;;;2.10;99.90;;;;;;5048693;28;19964;-69
2024/01/22 06:15:40;;;;;;;;;;;2.10;99.90;;;;;;5047570;28;19928;-62
2024/01/22 06:18:06;;;;;;;;;;;2.10;99.90;;;;;;5047367;28;20014;-66
2024/01/22 06:20:33;;;;;;;;;;;2.10;99.90;;;;;;5049954;28;20448;-66
2024/01/22 06:23:04;;;;;;;;;;;2.10;99.90;;;;;;5050588;28;19925;-62
2024/01/22 06:25:31;;;;;;;;;;;2.20;99.90;;;;;;5052258;28;19987;-63
2024/01/22 06:27:57;;;;;;;;;;;2.10;99.90;;;;;;5054745;28;19929;-63
2024/01/22 06:30:25;;;;;;;;;;;2.10;99.90;;;;;;5048510;28;19925;-61
2024/01/22 06:32:52;;;;;;;;;;;2.20;99.90;;;;;;5050037;28;20015;-67
2024/01/22 06:35:19;;;;;;;;;;;2.10;99.90;;;;;;5048917;28;19943;-62
2024/01/22 06:37:45;;;;;;;;;;;2.10;99.90;;;;;;5054898;28;19930;-67
2024/01/22 06:40:12;;;;;;;;;;;2.20;99.90;;;;;;5051506;28;19971;-63
2024/01/22 06:42:39;;;;;;;;;;;2.20;99.90;;;;;;5059943;28;19935;-61
2024/01/22 06:45:07;;;;;;;;;;;2.20;99.90;;;;;;5052533;28;20030;-61
2024/01/22 06:47:35;;;;;;;;;;;2.20;99.90;;;;;;5050664;28;19929;-62
2024/01/22 06:50:03;;;;;;;;;;;2.20;99.90;;;;;;5054495;28;19929;-62
2024/01/22 06:52:30;;;;;;;;;;;2.20;99.90;;;;;;5051416;28;19924;-67
2024/01/22 06:54:57;;;;;;;;;;;2.20;99.90;;;;;;5048155;28;19929;-67
2024/01/22 06:57:24;;;;;;;;;;;2.20;99.90;;;;;;5049387;28;19932;-62
2024/01/22 06:59:52;;;;;;;;;;;2.20;99.90;;;;;;5052302;28;19978;-62
2024/01/22 07:02:26;;;;;;;;;;;2.30;99.90;;;;;;5051044;28;19928;-70
2024/01/22 07:04:55;;;;;;;;;;;2.30;99.90;;;;;;5057877;28;19932;-65
2024/01/22 07:07:23;;;;;;;;;;;2.30;99.90;;;;;;5043736;28;19932;-62
2024/01/22 07:09:50;;;;;;;;;;;2.30;99.90;;;;;;5050452;28;19943;-68
2024/01/22 07:12:17;;;;;;;;;;;2.40;99.90;;;;;;5056403;28;19931;-63
2024/01/22 07:14:44;;;;;;;;;;;2.30;99.90;;;;;;5052046;28;19936;-64
2024/01/22 07:17:21;;;;;;;;;;;2.30;99.90;;;;;;5051219;28;19985;-62
2024/01/22 07:19:48;;;;;;;;;;;2.40;99.90;;;;;;5050964;28;19925;-65
2024/01/22 07:22:15;;;;;;;;;;;2.40;99.90;;;;;;5049715;28;19981;-67
2024/01/22 07:24:41;;;;;;;;;;;2.40;99.90;;;;;;5045003;28;19964;-62
2024/01/22 07:27:09;;;;;;;;;;;2.40;99.90;;;;;;5048756;28;20391;-64
2024/01/22 07:29:36;;;;;;;;;;;2.40;99.90;;;;;;5056989;28;20516;-62
2024/01/22 07:32:03;;;;;;;;;;;2.40;99.90;;;;;;5049328;28;19932;-61
2024/01/22 07:34:30;;;;;;;;;;;2.50;99.90;;;;;;5055549;28;19928;-64
2024/01/22 07:36:57;;;;;;;;;;;2.60;99.90;;;;;;5047631;28;19928;-63
2024/01/22 07:39:24;;;;;;;;;;;2.60;99.90;;;;;;5050219;28;19925;-62
2024/01/22 07:41:51;;;;;;;;;;;2.60;99.90;;;;;;5031412;28;19925;-60
2024/01/22 07:44:17;;;;;;;;;;;2.60;99.90;;;;;;5050863;28;19929;-61
2024/01/22 07:46:44;;;;;;;;;;;2.70;99.90;;;;;;5049136;28;19932;-61
2024/01/22 07:49:11;;;;;;;;;;;2.60;99.90;;;;;;5054456;28;19948;-62
2024/01/22 07:51:38;;;;;;;;;;;2.70;99.90;;;;;;5057595;28;20329;-63
2024/01/22 07:54:05;;;;;;;;;;;2.80;99.90;;;;;;5053531;28;20329;-63
2024/01/22 07:56:32;;;;;;;;;;;2.80;99.90;;;;;;5046949;28;19979;-62
2024/01/22 07:59:00;;;;;;;;;;;2.90;99.90;;;;;;5059267;28;19933;-61
2024/01/22 08:01:26;;;;;;;;;;;2.90;99.90;;;;;;5052333;28;20883;-61
2024/01/22 08:03:53;;;;;;;;;;;2.90;99.90;;;;;;5056604;28;19925;-64
2024/01/22 08:06:20;;;;;;;;;;;2.90;99.90;;;;;;5053543;28;19928;-62
2024/01/22 08:08:47;;;;;;;;;;;2.90;99.90;;;;;;5051872;28;19932;-66
2024/01/22 08:11:14;;;;;;;;;;;2.90;99.90;;;;;;5053131;28;20032;-65
2024/01/22 08:13:41;;;;;;;;;;;2.90;99.90;;;;;;5054347;28;19978;-60
2024/01/22 08:16:08;;;;;;;;;;;2.90;99.90;;;;;;5061025;28;19979;-60
2024/01/22 08:18:34;;;;;;;;;;;3.00;99.90;;;;;;5057555;28;19935;-63
2024/01/22 08:21:02;;;;;;;;;;;3.00;99.90;;;;;;5055975;28;19929;-62
2024/01/22 08:23:29;;;;;;;;;;;3.00;99.90;;;;;;5056619;28;20337;-68
2024/01/22 08:25:56;;;;;;;;;;;3.00;99.90;;;;;;5055039;28;20437;-67
2024/01/22 08:28:24;;;;;;;;;;;3.00;99.90;;;;;;5053495;28;20440;-64
2024/01/22 08:30:51;;;;;;;;;;;3.00;99.90;;;;;;5056796;28;19925;-61
2024/01/22 08:33:18;;;;;;;;;;;3.10;99.90;;;;;;5049290;28;19936;-63
2024/01/22 08:35:45;;;;;;;;;;;3.10;99.90;;;;;;5049980;28;19950;-60
2024/01/22 08:38:13;;;;;;;;;;;3.10;99.90;;;;;;5056928;28;20049;-63
2024/01/22 08:40:42;;;;;;;;;;;3.10;99.90;;;;;;5051852;28;20617;-64
2024/01/22 08:43:10;;;;;;;;;;;3.10;99.90;;;;;;5051748;28;20402;-62
2024/01/22 08:45:37;;;;;;;;;;;3.20;99.90;;;;;;5060653;28;19932;-61
2024/01/22 08:48:04;;;;;;;;;;;3.20;99.90;;;;;;5052239;28;19929;-64
2024/01/22 08:50:31;;;;;;;;;;;3.20;99.90;;;;;;5055840;28;19956;-61
2024/01/22 08:52:58;;;;;;;;;;;3.20;99.90;;;;;;5051142;28;19931;-61
2024/01/22 08:55:25;;;;;;;;;;;3.20;99.90;;;;;;5051470;28;19929;-62
2024/01/22 08:57:53;;;;;;;;;;;3.30;99.90;;;;;;5050237;28;20281;-66
2024/01/22 09:00:21;;;;;;;;;;;3.30;99.90;;;;;;5051726;28;19929;-61
2024/01/22 09:02:49;;;;;;;;;;;3.30;99.90;;;;;;5054846;28;19925;-60
2024/01/22 09:05:17;;;;;;;;;;;3.30;99.90;;;;;;5057966;28;19955;-63
2024/01/22 09:07:46;;;;;;;;;;;3.30;99.90;;;;;;5051244;28;19936;-63
2024/01/22 09:10:14;;;;;;;;;;;3.30;99.90;;;;;;5055459;28;19924;-60
2024/01/22 09:12:41;;;;;;;;;;;3.30;99.90;;;;;;5053184;28;19925;-60
2024/01/22 09:15:08;;;;;;;;;;;3.40;99.90;;;;;;5054269;28;19936;-60
2024/01/22 09:17:36;;;;;;;;;;;3.40;99.90;;;;;;5047903;28;19947;-60
2024/01/22 09:20:05;;;;;;;;;;;3.40;99.90;;;;;;5049489;28;20027;-59
2024/01/22 09:22:33;;;;;;;;;;;3.40;99.90;;;;;;5051634;28;19929;-60
2024/01/22 09:24:59;;;;;;;;;;;3.40;99.90;;;;;;5064509;28;19937;-61
2024/01/22 09:27:26;;;;;;;;;;;3.40;99.90;;;;;;5058253;28;20457;-63
2024/01/22 09:29:53;;;;;;;;;;;3.50;99.90;;;;;;5056281;28;20778;-62
2024/01/22 09:32:20;;;;;;;;;;;3.50;99.90;;;;;;5052153;28;20047;-61
2024/01/22 09:34:47;;;;;;;;;;;3.50;99.90;;;;;;5056113;28;20024;-64
2024/01/22 09:37:14;;;;;;;;;;;3.50;99.90;;;;;;5050274;28;20391;-62
2024/01/22 09:39:41;;;;;;;;;;;3.50;99.90;;;;;;5049768;28;19929;-64
2024/01/22 09:42:08;;;;;;;;;;;3.60;99.90;;;;;;5047986;28;19982;-62
2024/01/22 09:44:36;;;;;;;;;;;3.60;99.90;;;;;;5048370;28;19960;-59
2024/01/22 09:47:03;;;;;;;;;;;3.60;99.90;;;;;;5049808;28;19925;-59
2024/01/22 09:49:30;;;;;;;;;;;3.60;99.90;;;;;;5058857;28;19972;-67
2024/01/22 09:51:57;;;;;;;;;;;3.60;99.90;;;;;;5032118;28;20019;-60
2024/01/22 09:54:28;;;;;;;;;;;3.60;99.90;;;;;;5056588;28;19936;-59
2024/01/22 09:56:56;;;;;;;;;;;3.60;99.90;;;;;;5052890;28;19964;-64
2024/01/22 09:59:24;;;;;;;;;;;3.60;99.90;;;;;;5051436;28;19948;-60
2024/01/22 10:01:52;;;;;;;;;;;3.60;99.90;;;;;;5041524;28;20663;-60
2024/01/22 10:04:19;;;;;;;;;;;3.60;99.90;;;;;;5033843;28;19961;-65
2024/01/22 10:06:48;;;;;;;;;;;3.60;99.90;;;;;;5038919;28;19929;-64
2024/01/22 10:09:17;;;;;;;;;;;3.60;99.90;;;;;;5036741;28;19936;-61
2024/01/22 10:11:44;;;;;;;;;;;3.70;99.90;;;;;;5031840;28;19928;-68
2024/01/22 10:14:11;;;;;;;;;;;3.70;99.90;;;;;;5031953;28;20549;-63
2024/01/22 10:16:38;;;;;;;;;;;3.70;99.90;;;;;;5035934;28;20029;-62
2024/01/22 10:19:07;;;;;;;;;;;3.70;99.90;;;;;;5032394;28;19936;-66
2024/01/22 10:21:34;;;;;;;;;;;3.70;99.90;;;;;;5034780;28;19929;-62
2024/01/22 10:24:02;;;;;;;;;;;3.70;99.90;;;;;;5029044;28;19967;-61
2024/01/22 10:26:30;;;;;;;;;;;3.70;99.90;;;;;;5032918;28;19928;-62
2024/01/22 10:29:18;;;;;;;;;;;3.70;99.90;;;;;;5035961;28;19964;-60
2024/01/22 10:31:55;;;;;;;;;;;3.70;99.90;;;;;;5035589;28;19932;-60
2024/01/22 10:34:28;;;;;;;;;;;3.70;99.90;;;;;;5036925;28;20105;-61
2024/01/22 10:37:07;;;;;;;;;;;3.80;99.90;;;;;;5034669;28;19929;-66
2024/01/22 10:39:35;;;;;;;;;;;3.80;99.90;;;;;;5033928;28;19928;-60
2024/01/22 10:42:11;;;;;;;;;;;3.80;99.90;;;;;;5034874;28;19925;-61
2024/01/22 10:44:40;;;;;;;;;;;3.80;99.90;;;;;;5039084;28;19925;-59
2024/01/22 10:47:09;;;;;;;;;;;3.80;99.90;;;;;;5041912;28;19925;-62
2024/01/22 10:49:36;;;;;;;;;;;3.80;99.90;;;;;;5039476;28;19929;-60
2024/01/22 10:52:04;;;;;;;;;;;3.90;99.90;;;;;;5037448;28;19932;-63
2024/01/22 10:54:33;;;;;;;;;;;3.90;99.90;;;;;;5038429;28;19928;-61
2024/01/22 10:57:04;;;;;;;;;;;3.90;99.90;;;;;;5028996;28;19933;-62
2024/01/22 10:59:33;;;;;;;;;;;3.90;99.90;;;;;;5027302;28;20382;-63
2024/01/22 11:02:01;;;;;;;;;;;4.00;99.90;;;;;;5055225;28;19928;-62
2024/01/22 11:04:38;;;;;;;;;;;4.00;99.90;;;;;;5051518;28;20027;-61
2024/01/22 11:07:06;;;;;;;;;;;4.00;99.90;;;;;;5057521;28;19925;-61
2024/01/22 11:09:33;;;;;;;;;;;4.00;99.90;;;;;;5048600;28;20580;-61
2024/01/22 11:12:03;;;;;;;;;;;4.00;99.90;;;;;;5050052;28;19991;-63
2024/01/22 11:14:31;;;;;;;;;;;4.00;99.90;;;;;;5051965;28;19924;-60
2024/01/22 11:16:58;;;;;;;;;;;4.00;99.90;;;;;;5047680;28;19929;-62
2024/01/22 11:19:26;;;;;;;;;;;4.10;99.90;;;;;;5047675;28;19924;-60
2024/01/22 11:21:53;;;;;;;;;;;4.00;99.90;;;;;;5053499;28;19960;-67
2024/01/22 11:24:23;;;;;;;;;;;4.00;99.90;;;;;;5050709;28;19982;-61
2024/01/22 11:26:51;;;;;;;;;;;4.00;99.90;;;;;;5050727;28;19986;-66
2024/01/22 11:29:23;;;;;;;;;;;4.00;99.90;;;;;;5047083;28;20002;-59
2024/01/22 11:31:50;;;;;;;;;;;4.00;99.90;;;;;;5049904;28;19933;-62
2024/01/22 11:34:37;;;;;;;;;;;4.00;99.90;;;;;;5058195;28;19928;-60
2024/01/22 11:37:07;;;;;;;;;;;4.10;99.90;;;;;;5053045;28;19936;-63
2024/01/22 11:39:43;;;;;;;;;;;4.10;99.90;;;;;;5054123;28;19925;-63
2024/01/22 11:42:17;;;;;;;;;;;4.10;99.90;;;;;;5048314;28;20481;-63
2024/01/22 11:44:48;;;;;;;;;;;4.10;99.90;;;;;;5054495;28;19925;-61
2024/01/22 11:47:18;;;;;;;;;;;4.10;99.90;;;;;;5056524;28;19931;-61
2024/01/22 11:49:45;;;;;;;;;;;4.10;99.90;;;;;;5058711;28;19933;-61
2024/01/22 11:52:14;;;;;;;;;;;4.10;99.90;;;;;;5053263;28;19928;-62
2024/01/22 11:54:55;;;;;;;;;;;4.10;99.90;;;;;;5057104;28;19932;-63
2024/01/22 11:57:23;;;;;;;;;;;4.10;99.90;;;;;;5050950;28;19991;-64
2024/01/22 12:00:11;;;;;;;;;;;4.10;99.90;;;;;;5046654;28;19951;-60
2024/01/22 12:02:40;;;;;;;;;;;4.20;99.90;;;;;;5037964;28;20379;-60
2024/01/22 12:05:09;;;;;;;;;;;4.10;99.90;;;;;;5042417;28;19936;-65
2024/01/22 12:07:40;;;;;;;;;;;4.10;99.90;;;;;;5032994;28;20276;-62
2024/01/22 12:10:20;;;;;;;;;;;4.20;99.90;;;;;;5042752;28;19929;-63
2024/01/22 12:12:55;;;;;;;;;;;4.20;99.90;;;;;;5035358;28;19929;-63
2024/01/22 12:15:23;;;;;;;;;;;4.20;99.90;;;;;;5035589;28;20383;-63
2024/01/22 12:17:51;;;;;;;;;;;4.20;99.90;;;;;;5036620;28;20015;-63
2024/01/22 12:20:19;;;;;;;;;;;4.20;99.90;;;;;;5035981;28;20027;-66
2024/01/22 12:22:54;;;;;;;;;;;4.20;99.90;;;;;;5042463;28;20097;-63
2024/01/22 12:25:21;;;;;;;;;;;4.20;99.90;;;;;;5040513;28;20421;-60
2024/01/22 12:27:50;;;;;;;;;;;4.20;99.90;;;;;;5045624;28;20398;-61
2024/01/22 12:30:17;;;;;;;;;;;4.20;99.90;;;;;;5036147;28;20583;-60
2024/01/22 12:32:54;;;;;;;;;;;4.20;99.90;;;;;;5041758;28;20012;-62
2024/01/22 12:35:25;;;;;;;;;;;4.20;99.90;;;;;;5037919;28;19925;-60
2024/01/22 12:37:52;;;;;;;;;;;4.20;99.90;;;;;;5046126;28;19983;-65
2024/01/22 12:40:20;;;;;;;;;;;4.20;99.90;;;;;;5044244;28;20011;-61
2024/01/22 12:42:48;;;;;;;;;;;4.20;99.90;;;;;;5042713;28;19931;-62
2024/01/22 12:45:19;;;;;;;;;;;4.20;99.90;;;;;;5042090;28;19925;-62
2024/01/22 12:47:47;;;;;;;;;;;4.20;99.90;;;;;;5044037;28;19929;-61
2024/01/22 12:50:17;;;;;;;;;;;4.20;99.90;;;;;;5040390;28;20419;-61
2024/01/22 12:52:45;;;;;;;;;;;4.20;99.90;;;;;;5038805;28;19925;-63
2024/01/22 12:55:14;;;;;;;;;;;4.20;99.90;;;;;;5037169;28;19983;-62
2024/01/22 12:57:42;;;;;;;;;;;4.20;99.90;;;;;;5039234;28;19964;-60
2024/01/22 13:00:09;;;;;;;;;;;4.20;99.90;;;;;;5044231;28;19932;-60
2024/01/22 13:02:38;;;;;;;;;;;4.20;99.90;;;;;;5057236;28;19931;-61
2024/01/22 13:05:06;;;;;;;;;;;4.20;99.90;;;;;;5058607;28;20290;-64
2024/01/22 13:07:33;;;;;;;;;;;4.20;99.90;;;;;;5053119;28;19956;-61
2024/01/22 13:10:00;;;;;;;;;;;4.20;99.90;;;;;;5056654;28;19935;-65
2024/01/22 13:12:28;;;;;;;;;;;4.20;99.90;;;;;;5052017;28;19940;-60
2024/01/22 13:14:55;;;;;;;;;;;4.20;99.90;;;;;;5048183;28;19935;-60
2024/01/22 13:17:22;;;;;;;;;;;4.20;99.90;;;;;;5054442;28;19939;-62
2024/01/22 13:19:49;;;;;;;;;;;4.30;99.90;;;;;;5054671;28;19931;-62
2024/01/22 13:22:16;;;;;;;;;;;4.30;99.90;;;;;;5057239;28;19932;-60
2024/01/22 13:24:44;;;;;;;;;;;4.30;99.90;;;;;;5058099;28;20031;-63
2024/01/22 13:27:11;;;;;;;;;;;4.30;99.90;;;;;;5057508;28;19933;-63
2024/01/22 13:29:39;;;;;;;;;;;4.30;99.90;;;;;;5055275;28;19924;-62
2024/01/22 13:32:06;;;;;;;;;;;4.30;99.90;;;;;;5051079;28;19924;-60
2024/01/22 13:34:33;;;;;;;;;;;4.30;99.90;;;;;;5053825;28;20011;-66
2024/01/22 13:37:01;;;;;;;;;;;4.30;99.90;;;;;;5052323;28;20264;-59
2024/01/22 13:39:28;;;;;;;;;;;4.30;99.90;;;;;;5050076;28;19952;-62
2024/01/22 13:41:55;;;;;;;;;;;4.30;99.90;;;;;;5059963;28;19963;-62
2024/01/22 13:44:22;;;;;;;;;;;4.40;99.90;;;;;;5059518;28;19924;-60
2024/01/22 13:46:49;;;;;;;;;;;4.40;99.90;;;;;;5057603;28;19955;-62
2024/01/22 13:49:16;;;;;;;;;;;4.40;99.90;;;;;;5057394;28;19929;-65
2024/01/22 13:51:43;;;;;;;;;;;4.40;99.90;;;;;;5057455;28;19925;-61
2024/01/22 13:54:10;;;;;;;;;;;4.40;99.90;;;;;;5051500;28;19968;-60
2024/01/22 13:56:38;;;;;;;;;;;4.40;99.90;;;;;;5054367;28;20470;-66
2024/01/22 13:59:07;;;;;;;;;;;4.40;99.90;;;;;;5051707;28;19976;-63
2024/01/22 14:01:35;;;;;;;;;;;4.50;99.90;;;;;;5058927;28;19925;-62
2024/01/22 14:04:01;;;;;;;;;;;4.40;99.90;;;;;;5045611;28;19940;-66
2024/01/22 14:06:28;;;;;;;;;;;4.50;99.90;;;;;;5057333;28;19935;-59
2024/01/22 14:08:55;;;;;;;;;;;4.50;99.90;;;;;;5054634;28;19982;-63
2024/01/22 14:11:22;;;;;;;;;;;4.50;99.90;;;;;;5053165;28;20432;-62
2024/01/22 14:13:49;;;;;;;;;;;4.50;99.90;;;;;;5053331;28;19994;-63
2024/01/22 14:16:23;;;;;;;;;;;4.50;99.90;;;;;;5060454;27;19927;-60
2024/01/22 14:18:50;;;;;;;;;;;4.50;99.90;;;;;;5048445;28;19983;-65
2024/01/22 14:21:17;;;;;;;;;;;4.50;99.90;;;;;;5051142;28;19932;-61
2024/01/22 14:23:45;;;;;;;;;;;4.60;99.90;;;;;;5040979;28;19939;-63
2024/01/22 14:26:13;;;;;;;;;;;4.50;99.90;;;;;;5044484;28;19936;-61
2024/01/22 14:28:40;;;;;;;;;;;4.50;99.90;;;;;;5046775;28;19936;-63
2024/01/22 14:31:07;;;;;;;;;;;4.60;99.90;;;;;;5045945;28;19925;-63
2024/01/22 14:33:34;;;;;;;;;;;4.50;99.90;;;;;;5050836;28;20410;-64